createdAt,value
2019-04-30T00:01:48.662Z,5.75
2019-04-30T00:04:25.271Z,9.18
2019-04-30T00:06:55.636Z,7.60
2019-04-30T00:09:26.407Z,7.28
2019-04-30T00:12:01.035Z,7.05
2019-04-30T00:14:32.509Z,7.80
2019-04-30T00:16:58.614Z,5.87
2019-04-30T00:19:28.009Z,7.78
2019-04-30T00:22:00.309Z,8.08
2019-04-30T00:24:28.472Z,7.97
2019-04-30T00:26:57.878Z,7.80
2019-04-30T00:29:30.848Z,5.80
2019-04-30T00:32:04.569Z,7.50
2019-04-30T00:34:30.925Z,7.22
2019-04-30T00:37:00.980Z,8.35
2019-04-30T00:39:30.352Z,7.90
2019-04-30T00:41:59.737Z,9.58
2019-04-30T00:44:29.328Z,6.85
2019-04-30T00:47:00.664Z,10.05
2019-04-30T00:49:29.835Z,6.62
2019-04-30T00:51:59.197Z,8.28
2019-04-30T00:54:30.877Z,7.33
2019-04-30T00:57:04.532Z,7.08
2019-04-30T00:59:31.133Z,6.62
2019-04-30T01:02:02.146Z,5.30
2019-04-30T01:04:39.003Z,5.20
2019-04-30T01:07:09.503Z,5.10
2019-04-30T01:09:39.736Z,5.50
2019-04-30T01:12:10.036Z,8.90
2019-04-30T01:14:39.405Z,5.53
2019-04-30T01:17:12.118Z,7.03
2019-04-30T01:19:39.947Z,10.45
2019-04-30T01:22:09.323Z,6.72
2019-04-30T01:24:38.803Z,6.12
2019-04-30T01:27:10.662Z,7.40
2019-04-30T01:29:44.108Z,6.30
2019-04-30T01:32:17.620Z,7.30
2019-04-30T01:34:44.372Z,6.35
2019-04-30T01:37:13.686Z,6.85
2019-04-30T01:39:43.062Z,5.75
2019-04-30T01:42:12.428Z,5.40
2019-04-30T01:44:43.489Z,7.33
2019-04-30T01:47:13.810Z,6.67
2019-04-30T01:49:44.824Z,7.40
2019-04-30T01:52:14.379Z,6.78
2019-04-30T01:54:43.745Z,4.78
2019-04-30T01:57:30.768Z,7.62
2019-04-30T02:00:04.490Z,6.92
2019-04-30T02:02:35.485Z,9.30
2019-04-30T02:05:08.946Z,7.55
2019-04-30T02:07:38.794Z,8.73
2019-04-30T02:12:45.532Z,7.08
2019-04-30T02:15:14.954Z,5.30
2019-04-30T02:17:44.315Z,6.92
2019-04-30T02:20:14.869Z,7.26
2019-04-30T02:22:44.302Z,7.85
2019-04-30T02:25:15.378Z,6.65
2019-04-30T02:27:44.790Z,10.03
2019-04-30T02:30:14.543Z,7.22
2019-04-30T02:32:43.849Z,6.78
2019-04-30T02:35:15.000Z,7.32
2019-04-30T02:38:01.969Z,6.03
2019-04-30T02:40:35.274Z,7.37
2019-04-30T02:43:05.946Z,6.50
2019-04-30T02:45:40.152Z,5.40
2019-04-30T02:50:43.957Z,6.75
2019-04-30T02:53:50.532Z,8.03
2019-04-30T02:56:26.349Z,6.05
2019-04-30T02:58:54.025Z,7.72
2019-04-30T03:01:24.063Z,5.08
2019-04-30T03:03:53.415Z,9.68
2019-04-30T03:06:23.751Z,6.12
2019-04-30T03:08:53.438Z,7.20
2019-04-30T03:11:22.809Z,6.97
2019-04-30T03:13:51.992Z,8.25
2019-04-30T03:16:23.005Z,8.05
2019-04-30T03:18:54.012Z,7.25
2019-04-30T03:21:40.955Z,7.67
2019-04-30T03:24:11.227Z,4.72
2019-04-30T03:26:40.791Z,5.97
2019-04-30T03:29:11.124Z,7.20
2019-04-30T03:31:43.765Z,5.47
2019-04-30T03:34:18.387Z,5.80
2019-04-30T03:36:43.328Z,6.70
2019-04-30T03:39:12.689Z,5.33
2019-04-30T03:41:42.074Z,11.38
2019-04-30T03:44:21.648Z,9.95
2019-04-30T03:46:42.530Z,6.90
2019-04-30T03:49:13.324Z,6.47
2019-04-30T03:51:43.346Z,7.90
2019-04-30T03:54:12.711Z,6.37
2019-04-30T03:56:43.047Z,7.53
2019-04-30T03:59:12.689Z,8.53
2019-04-30T04:01:43.694Z,8.35
2019-04-30T04:04:20.299Z,7.17
2019-04-30T04:07:07.259Z,6.72
2019-04-30T04:09:49.703Z,4.65
2019-04-30T04:12:21.249Z,7.87
2019-04-30T04:14:51.132Z,7.05
2019-04-30T04:17:21.400Z,6.72
2019-04-30T04:19:53.482Z,7.15
2019-04-30T04:22:22.850Z,10.88
2019-04-30T04:24:52.793Z,7.95
2019-04-30T04:27:22.228Z,9.28
2019-04-30T04:29:51.604Z,4.62
2019-04-30T04:32:24.259Z,7.58
2019-04-30T04:34:52.071Z,7.42
2019-04-30T04:37:21.440Z,6.40
2019-04-30T04:39:51.150Z,5.62
2019-04-30T04:42:20.529Z,6.70
2019-04-30T04:44:50.469Z,6.35
2019-04-30T04:47:20.442Z,5.42
2019-04-30T04:49:53.551Z,7.37
2019-04-30T04:52:21.995Z,8.05
2019-04-30T04:54:52.554Z,8.10
2019-04-30T04:57:22.994Z,5.95
2019-04-30T04:59:52.667Z,8.50
2019-04-30T05:02:32.557Z,7.40
2019-04-30T05:05:00.499Z,8.25
2019-04-30T05:07:29.856Z,6.85
2019-04-30T05:10:00.958Z,6.72
2019-04-30T05:12:30.514Z,5.45
2019-04-30T05:14:59.969Z,7.08
2019-04-30T05:17:31.991Z,8.63
2019-04-30T05:20:00.392Z,6.40
2019-04-30T05:22:29.748Z,7.97
2019-04-30T05:24:59.210Z,5.58
2019-04-30T05:27:30.212Z,5.62
2019-04-30T05:29:59.643Z,9.28
2019-04-30T05:32:29.395Z,7.05
2019-04-30T05:34:58.781Z,8.33
2019-04-30T05:37:28.423Z,7.83
2019-04-30T05:40:00.907Z,5.42
2019-04-30T05:42:29.493Z,6.60
2019-04-30T05:44:59.296Z,7.15
2019-04-30T05:47:29.220Z,7.05
2019-04-30T05:49:58.661Z,5.45
2019-04-30T05:52:29.537Z,6.72
2019-04-30T05:55:00.177Z,6.65
2019-04-30T05:57:30.760Z,6.42
2019-04-30T06:00:00.129Z,6.40
2019-04-30T06:02:33.584Z,6.03
2019-04-30T06:05:00.785Z,7.95
2019-04-30T06:07:30.209Z,9.28
2019-04-30T06:10:01.435Z,8.05
2019-04-30T06:12:49.318Z,6.35
2019-04-30T06:15:20.554Z,6.43
2019-04-30T06:17:59.644Z,3.92
2019-04-30T06:20:22.679Z,6.73
2019-04-30T06:22:53.365Z,6.80
2019-04-30T06:25:31.711Z,7.03
2019-04-30T06:27:54.553Z,5.30
2019-04-30T06:30:25.941Z,6.50
2019-04-30T06:32:55.842Z,4.97
2019-04-30T06:35:25.723Z,5.53
2019-04-30T06:37:55.163Z,7.25
2019-04-30T06:40:24.547Z,4.53
2019-04-30T06:42:54.476Z,5.15
2019-04-30T06:45:24.045Z,9.00
2019-04-30T06:47:54.566Z,6.95
2019-04-30T06:50:23.937Z,7.47
2019-04-30T06:52:56.851Z,8.28
2019-04-30T06:55:24.433Z,4.23
2019-04-30T06:57:53.801Z,7.12
2019-04-30T07:00:36.670Z,5.70
2019-04-30T07:03:09.359Z,5.00
2019-04-30T07:05:38.943Z,6.65
2019-04-30T07:08:37.319Z,5.53
2019-04-30T07:11:21.709Z,6.08
2019-04-30T07:13:52.378Z,4.45
2019-04-30T07:16:21.874Z,5.62
2019-04-30T07:18:51.240Z,3.87
2019-04-30T07:21:20.625Z,5.87
2019-04-30T07:23:49.991Z,6.97
2019-04-30T07:26:24.253Z,4.97
2019-04-30T07:28:54.894Z,6.85
2019-04-30T07:31:21.894Z,7.42
2019-04-30T07:33:53.745Z,6.10
2019-04-30T07:36:22.410Z,5.92
2019-04-30T07:38:56.469Z,5.22
2019-04-30T07:41:22.830Z,9.75
2019-04-30T07:43:53.042Z,5.15
2019-04-30T07:46:22.441Z,3.40
2019-04-30T07:48:51.859Z,6.05
2019-04-30T07:51:22.067Z,5.70
2019-04-30T07:53:52.046Z,4.05
2019-04-30T07:56:27.857Z,5.17
2019-04-30T07:58:52.520Z,4.55
2019-04-30T08:01:21.917Z,4.08
2019-04-30T08:03:55.924Z,5.15
2019-04-30T08:06:25.441Z,7.67
2019-04-30T08:08:59.859Z,5.17
2019-04-30T08:11:26.550Z,4.25
2019-04-30T08:13:56.498Z,4.58
2019-04-30T08:16:28.795Z,6.90
2019-04-30T08:18:59.149Z,4.85
2019-04-30T08:21:29.160Z,4.10
2019-04-30T08:23:59.305Z,9.03
2019-04-30T08:26:29.689Z,4.70
2019-04-30T08:28:59.771Z,5.42
2019-04-30T08:31:29.371Z,4.10
2019-04-30T08:33:59.216Z,4.92
2019-04-30T08:36:29.776Z,4.17
2019-04-30T08:38:59.861Z,5.67
2019-04-30T08:41:29.489Z,3.25
2019-04-30T08:43:59.770Z,4.08
2019-04-30T08:46:29.504Z,3.90
2019-04-30T08:48:58.970Z,5.22
2019-04-30T08:51:30.936Z,3.98
2019-04-30T08:53:59.496Z,3.80
2019-04-30T08:56:29.547Z,4.37
2019-04-30T08:58:59.539Z,3.12
2019-04-30T09:01:29.485Z,2.58
2019-04-30T09:03:59.777Z,2.67
2019-04-30T09:06:31.457Z,4.62
2019-04-30T09:09:01.867Z,5.83
2019-04-30T09:11:42.919Z,4.03
2019-04-30T09:14:02.378Z,4.15
2019-04-30T09:16:32.111Z,3.77
2019-04-30T09:19:01.453Z,3.17
2019-04-30T09:21:30.832Z,5.00
2019-04-30T09:24:00.198Z,4.85
2019-04-30T09:26:29.564Z,4.53
2019-04-30T09:28:59.620Z,3.52
2019-04-30T09:31:29.759Z,3.12
2019-04-30T09:34:00.942Z,4.55
2019-04-30T09:36:30.480Z,5.97
2019-04-30T09:39:01.489Z,3.25
2019-04-30T09:41:30.922Z,4.08
2019-04-30T09:44:00.619Z,4.97
2019-04-30T09:46:30.161Z,2.30
2019-04-30T09:48:59.852Z,3.98
2019-04-30T09:51:30.873Z,4.58
2019-04-30T09:54:03.625Z,5.03
2019-04-30T09:56:31.884Z,4.55
2019-04-30T09:59:01.583Z,3.02
2019-04-30T10:01:32.962Z,3.70
2019-04-30T10:04:02.775Z,2.92
2019-04-30T10:06:39.720Z,2.92
2019-04-30T10:09:09.665Z,5.33
2019-04-30T10:11:43.215Z,3.17
2019-04-30T10:14:12.590Z,3.05
2019-04-30T10:16:43.643Z,2.87
2019-04-30T10:19:14.966Z,3.65
2019-04-30T10:21:44.542Z,4.80
2019-04-30T10:24:15.721Z,4.28
2019-04-30T10:26:45.040Z,5.65
2019-04-30T10:29:16.063Z,2.77
2019-04-30T10:31:45.420Z,2.67
2019-04-30T10:34:15.437Z,4.53
2019-04-30T10:36:44.804Z,4.25
2019-04-30T10:39:14.177Z,3.50
2019-04-30T10:41:43.549Z,2.67
2019-04-30T10:44:12.983Z,3.20
2019-04-30T10:46:42.523Z,2.60
2019-04-30T10:49:12.013Z,3.10
2019-04-30T10:51:41.404Z,2.33
2019-04-30T10:54:22.771Z,2.60
2019-04-30T10:56:42.530Z,3.40
2019-04-30T10:59:11.906Z,2.90
2019-04-30T11:01:41.286Z,2.80
2019-04-30T11:04:11.419Z,3.15
2019-04-30T11:06:40.856Z,4.03
2019-04-30T11:09:10.371Z,2.80
2019-04-30T11:11:40.779Z,3.02
2019-04-30T11:14:10.159Z,4.28
2019-04-30T11:16:39.532Z,4.12
2019-04-30T11:19:09.567Z,4.53
2019-04-30T11:21:39.323Z,4.08
2019-04-30T11:24:09.466Z,4.75
2019-04-30T11:26:40.659Z,8.23
2019-04-30T11:29:10.890Z,4.30
2019-04-30T11:31:54.209Z,5.95
2019-04-30T11:34:23.835Z,10.00
2019-04-30T11:36:53.205Z,4.72
2019-04-30T11:39:23.395Z,4.42
2019-04-30T11:41:53.323Z,3.98
2019-04-30T11:44:30.978Z,3.67
2019-04-30T11:47:22.425Z,7.65
2019-04-30T11:49:51.801Z,4.33
2019-04-30T11:52:21.788Z,4.95
2019-04-30T11:54:54.445Z,4.37
2019-04-30T11:57:22.913Z,5.20
2019-04-30T11:59:52.349Z,5.42
2019-04-30T12:02:23.891Z,3.83
2019-04-30T12:04:53.210Z,6.22
2019-04-30T12:07:24.218Z,3.72
2019-04-30T12:10:01.140Z,3.50
2019-04-30T12:12:30.523Z,2.55
2019-04-30T12:15:02.800Z,6.20
2019-04-30T12:17:32.292Z,3.40
2019-04-30T12:20:01.657Z,6.70
2019-04-30T12:22:31.041Z,4.80
2019-04-30T12:25:04.865Z,3.70
2019-04-30T12:27:31.891Z,5.15
2019-04-30T12:30:01.264Z,3.55
2019-04-30T12:32:30.903Z,4.80
2019-04-30T12:35:00.273Z,3.40
2019-04-30T12:37:29.656Z,5.00
2019-04-30T12:39:59.495Z,4.25
2019-04-30T12:42:29.002Z,3.00
2019-04-30T12:44:59.501Z,3.60
2019-04-30T12:47:30.812Z,5.42
2019-04-30T12:50:01.808Z,6.37
2019-04-30T12:52:45.443Z,3.55
2019-04-30T12:55:31.524Z,3.97
2019-04-30T12:58:02.566Z,3.77
2019-04-30T13:00:32.209Z,4.42
2019-04-30T13:03:01.725Z,4.28
2019-04-30T13:05:31.146Z,3.50
2019-04-30T13:08:01.139Z,5.10
2019-04-30T13:10:31.307Z,3.75
2019-04-30T13:13:01.510Z,3.45
2019-04-30T13:15:31.338Z,6.35
2019-04-30T13:18:01.142Z,5.85
2019-04-30T13:20:31.285Z,4.10
2019-04-30T13:23:00.645Z,4.12
2019-04-30T13:25:35.345Z,3.25
2019-04-30T13:28:03.157Z,3.05
2019-04-30T13:30:32.523Z,3.83
2019-04-30T13:33:09.583Z,2.80
2019-04-30T13:35:39.011Z,2.67
2019-04-30T13:38:15.770Z,4.03
2019-04-30T13:40:55.755Z,4.37
2019-04-30T13:43:44.987Z,4.37
2019-04-30T13:46:14.680Z,4.25
2019-04-30T13:48:44.055Z,3.22
2019-04-30T13:51:13.417Z,3.50
2019-04-30T13:53:42.825Z,3.55
2019-04-30T13:56:12.200Z,2.40
2019-04-30T13:58:41.569Z,4.70
2019-04-30T14:01:10.950Z,4.72
2019-04-30T14:03:53.997Z,4.12
2019-04-30T14:06:28.968Z,4.07
2019-04-30T14:09:00.918Z,2.50
2019-04-30T14:11:30.294Z,3.17
2019-04-30T14:13:59.671Z,5.15
2019-04-30T14:16:29.052Z,3.07
2019-04-30T14:18:59.603Z,4.30
2019-04-30T14:21:34.711Z,4.00
2019-04-30T14:24:00.597Z,5.62
2019-04-30T14:26:29.980Z,5.45
2019-04-30T14:28:59.371Z,6.45
2019-04-30T14:31:28.893Z,7.08
2019-04-30T14:33:59.343Z,5.22
2019-04-30T14:36:29.242Z,3.33
2019-04-30T14:39:13.072Z,5.22
2019-04-30T14:41:32.506Z,5.72
2019-04-30T14:44:03.875Z,6.35
2019-04-30T14:46:41.380Z,4.10
2019-04-30T14:49:16.537Z,3.67
2019-04-30T14:51:46.547Z,2.80
2019-04-30T14:54:20.438Z,5.28
2019-04-30T14:56:54.001Z,3.75
2019-04-30T14:59:33.954Z,3.30
2019-04-30T15:02:21.374Z,3.58
2019-04-30T15:04:50.741Z,3.35
2019-04-30T15:07:20.115Z,3.87
2019-04-30T15:09:49.580Z,4.53
2019-04-30T15:12:19.206Z,2.90
2019-04-30T15:14:49.255Z,3.77
2019-04-30T15:17:18.887Z,3.72
2019-04-30T15:19:49.355Z,6.03
2019-04-30T15:22:19.739Z,4.72
2019-04-30T15:24:49.283Z,2.90
2019-04-30T15:27:19.191Z,3.87
2019-04-30T15:29:56.703Z,2.85
2019-04-30T15:32:19.938Z,3.42
2019-04-30T15:34:49.291Z,4.28
2019-04-30T15:37:23.506Z,3.87
2019-04-30T15:39:52.265Z,7.00
2019-04-30T15:42:22.757Z,5.30
2019-04-30T15:44:52.126Z,3.22
2019-04-30T15:47:23.076Z,3.62
2019-04-30T15:49:52.458Z,4.47
2019-04-30T15:52:21.972Z,3.80
2019-04-30T15:54:51.377Z,2.85
2019-04-30T15:57:20.759Z,2.52
2019-04-30T15:59:50.129Z,4.67
2019-04-30T16:02:28.755Z,3.00
2019-04-30T16:05:02.751Z,2.72
2019-04-30T16:07:32.114Z,4.05
2019-04-30T16:10:03.190Z,3.00
2019-04-30T16:15:14.397Z,3.93
2019-04-30T16:17:45.439Z,5.42
2019-04-30T16:20:15.448Z,4.75
2019-04-30T16:22:44.839Z,5.53
2019-04-30T16:25:14.431Z,4.80
2019-04-30T16:27:43.807Z,3.65
2019-04-30T16:30:15.485Z,2.87
2019-04-30T16:32:45.099Z,4.05
2019-04-30T16:35:14.613Z,5.00
2019-04-30T16:37:43.986Z,3.95
2019-04-30T16:40:13.833Z,3.22
2019-04-30T16:42:43.202Z,4.10
2019-04-30T16:45:13.590Z,3.17
2019-04-30T16:47:42.960Z,5.20
2019-04-30T16:50:12.397Z,4.90
2019-04-30T16:52:41.955Z,3.72
2019-04-30T16:55:11.962Z,4.35
2019-04-30T16:57:41.444Z,3.50
2019-04-30T17:00:15.405Z,2.83
2019-04-30T17:05:19.480Z,4.97
2019-04-30T17:07:50.698Z,4.30
2019-04-30T17:10:21.865Z,3.00
2019-04-30T17:12:59.306Z,5.00
2019-04-30T17:15:32.948Z,3.75
2019-04-30T17:18:03.104Z,3.90
2019-04-30T17:20:32.788Z,3.10
2019-04-30T17:23:02.153Z,4.20
2019-04-30T17:25:31.533Z,4.20
2019-04-30T17:28:01.507Z,6.22
2019-04-30T17:30:30.957Z,3.47
2019-04-30T17:33:00.316Z,3.65
2019-04-30T17:35:29.941Z,3.50
2019-04-30T17:37:59.315Z,3.02
2019-04-30T17:40:29.216Z,3.85
2019-04-30T17:42:58.951Z,4.00
2019-04-30T17:45:29.206Z,3.13
2019-04-30T17:47:58.580Z,2.92
2019-04-30T17:50:29.577Z,4.27
2019-04-30T17:53:00.670Z,2.60
2019-04-30T17:55:30.161Z,7.60
2019-04-30T17:57:59.545Z,2.83
2019-04-30T18:00:30.559Z,6.03
2019-04-30T18:02:59.925Z,3.80
2019-04-30T18:05:29.778Z,4.85
2019-04-30T18:07:59.171Z,3.77
2019-04-30T18:10:28.714Z,3.25
2019-04-30T18:12:58.110Z,3.22
2019-04-30T18:15:29.125Z,5.65
2019-04-30T18:18:00.130Z,6.83
2019-04-30T18:20:43.124Z,5.93
2019-04-30T18:23:27.211Z,4.10
2019-04-30T18:25:58.407Z,5.58
2019-04-30T18:28:29.162Z,4.00
2019-04-30T18:30:59.105Z,9.40
2019-04-30T18:33:28.595Z,5.33
2019-04-30T18:35:59.663Z,4.05
2019-04-30T18:38:31.046Z,4.37
2019-04-30T18:41:00.618Z,4.67
2019-04-30T18:43:29.984Z,3.10
2019-04-30T18:46:00.709Z,4.85
2019-04-30T18:48:30.203Z,5.10
2019-04-30T18:50:59.603Z,4.30
2019-04-30T18:53:30.617Z,4.80
2019-04-30T18:55:59.997Z,3.72
2019-04-30T18:58:39.275Z,3.52
2019-04-30T19:01:00.457Z,5.00
2019-04-30T19:03:30.022Z,7.80
2019-04-30T19:06:01.037Z,5.83
2019-04-30T19:08:32.043Z,5.65
2019-04-30T19:11:05.748Z,6.22
2019-04-30T19:13:51.680Z,6.28
2019-04-30T19:16:25.771Z,5.72
2019-04-30T19:19:01.609Z,9.53
2019-04-30T19:21:31.135Z,7.85
2019-04-30T19:24:01.739Z,8.28
2019-04-30T19:26:31.170Z,5.03
2019-04-30T19:29:00.546Z,8.68
2019-04-30T19:31:29.918Z,7.43
2019-04-30T19:33:59.279Z,6.15
2019-04-30T19:36:37.418Z,5.97
2019-04-30T19:39:00.234Z,6.37
2019-04-30T19:41:29.600Z,7.80
2019-04-30T19:43:59.323Z,8.68
2019-04-30T19:46:29.407Z,7.03
2019-04-30T19:48:58.899Z,6.85
2019-04-30T19:51:29.597Z,7.50
2019-04-30T19:53:59.883Z,8.75
2019-04-30T19:56:30.410Z,6.33
2019-04-30T19:59:05.134Z,9.63
2019-04-30T20:01:32.198Z,7.05
2019-04-30T20:04:01.564Z,8.00
2019-04-30T20:06:31.013Z,8.20
2019-04-30T20:09:00.748Z,9.53
2019-04-30T20:11:30.229Z,5.78
2019-04-30T20:13:59.611Z,9.48
2019-04-30T20:16:28.969Z,5.80
2019-04-30T20:18:59.215Z,6.17
2019-04-30T20:21:45.321Z,7.40
2019-04-30T20:24:01.436Z,7.95
2019-04-30T20:26:32.069Z,6.62
2019-04-30T20:29:01.443Z,9.43
2019-04-30T20:31:30.818Z,10.30
2019-04-30T20:34:01.529Z,12.37
2019-04-30T20:36:31.173Z,11.95
2019-04-30T20:39:02.249Z,9.05
2019-04-30T20:41:33.325Z,9.05
2019-04-30T20:44:02.748Z,11.45
2019-04-30T20:46:35.173Z,10.75
2019-04-30T20:49:03.183Z,15.05
2019-04-30T20:51:34.151Z,11.68
2019-04-30T20:54:03.517Z,7.92
2019-04-30T20:56:32.941Z,7.70
2019-04-30T20:59:06.320Z,29.07
2019-04-30T21:01:33.422Z,13.00
2019-04-30T21:04:02.790Z,7.35
2019-04-30T21:06:32.172Z,7.85
2019-04-30T21:09:01.546Z,9.48
2019-04-30T21:11:30.916Z,8.30
2019-04-30T21:14:00.442Z,7.95
2019-04-30T21:16:29.808Z,6.92
2019-04-30T21:18:59.174Z,11.53
2019-04-30T21:21:28.885Z,8.15
2019-04-30T21:23:58.499Z,14.28
2019-04-30T21:26:27.895Z,16.27
2019-04-30T21:29:10.681Z,13.10
2019-04-30T21:31:31.166Z,14.00
2019-04-30T21:34:02.269Z,12.28
2019-04-30T21:36:31.677Z,11.68
2019-04-30T21:39:01.329Z,13.32
2019-04-30T21:41:30.708Z,12.93
2019-04-30T21:44:00.103Z,11.57
2019-04-30T21:46:29.514Z,11.05
2019-04-30T21:48:58.914Z,8.78
2019-04-30T21:51:28.294Z,9.53
2019-04-30T21:53:57.707Z,8.03
2019-04-30T21:56:27.125Z,10.18
2019-04-30T21:58:56.529Z,8.43
2019-04-30T22:01:25.999Z,9.73
2019-04-30T22:03:55.332Z,9.65
2019-04-30T22:06:24.714Z,12.15
2019-04-30T22:08:54.077Z,8.95
2019-04-30T22:11:23.454Z,9.63
2019-04-30T22:13:52.910Z,15.03
2019-04-30T22:16:22.280Z,9.45
2019-04-30T22:18:51.667Z,9.33
2019-04-30T22:21:21.169Z,8.78
2019-04-30T22:23:50.539Z,8.93
2019-04-30T22:26:19.916Z,8.33
2019-04-30T22:28:49.558Z,8.78
2019-04-30T22:31:20.153Z,13.13
2019-04-30T22:33:49.539Z,10.82
2019-04-30T22:36:21.435Z,9.18
2019-04-30T22:38:52.444Z,12.88
2019-04-30T22:41:26.031Z,8.78
2019-04-30T22:43:55.880Z,8.15
2019-04-30T22:46:25.257Z,7.87
2019-04-30T22:48:54.614Z,9.25
2019-04-30T22:51:24.005Z,9.63
2019-04-30T22:53:53.371Z,11.15
2019-04-30T22:56:22.746Z,13.48
2019-04-30T22:58:52.128Z,10.72
2019-04-30T23:01:28.976Z,8.88
2019-04-30T23:04:00.022Z,13.03
2019-04-30T23:06:29.392Z,13.72
2019-04-30T23:08:58.765Z,13.43
2019-04-30T23:11:28.159Z,11.73
2019-04-30T23:13:57.511Z,10.82
2019-04-30T23:16:26.894Z,11.57
2019-04-30T23:18:56.275Z,9.35
2019-04-30T23:21:25.650Z,15.08
2019-04-30T23:23:55.029Z,10.05
2019-04-30T23:26:24.962Z,12.63
2019-04-30T23:28:54.331Z,11.90
2019-04-30T23:31:23.704Z,12.80
2019-04-30T23:33:53.897Z,10.63
2019-04-30T23:36:23.267Z,12.28
2019-04-30T23:38:52.642Z,10.10
2019-04-30T23:41:22.554Z,11.35
2019-04-30T23:43:51.915Z,9.60
2019-04-30T23:46:21.296Z,9.88
2019-04-30T23:48:51.142Z,11.60
2019-04-30T23:51:20.520Z,8.90
2019-04-30T23:53:49.899Z,8.90
2019-04-30T23:56:19.290Z,10.60
2019-04-30T23:58:48.658Z,8.58
